sensor_id;sensor_type;location;lat;lon;timestamp;P1;durP1;ratioP1;P2;durP2;ratioP2
26102;SDS011;69760;49.380;8.998;2023-08-06T00:01:30;3.72;;;3.05;;
26102;SDS011;69760;49.380;8.998;2023-08-06T00:03:56;4.00;;;2.88;;
26102;SDS011;69760;49.380;8.998;2023-08-06T00:06:21;3.83;;;3.05;;
26102;SDS011;69760;49.380;8.998;2023-08-06T00:08:47;3.30;;;3.00;;
26102;SDS011;69760;49.380;8.998;2023-08-06T00:11:12;5.32;;;3.25;;
26102;SDS011;69760;49.380;8.998;2023-08-06T00:13:38;4.18;;;2.90;;
26102;SDS011;69760;49.380;8.998;2023-08-06T00:16:13;4.25;;;3.30;;
26102;SDS011;69760;49.380;8.998;2023-08-06T00:18:39;5.28;;;3.60;;
26102;SDS011;69760;49.380;8.998;2023-08-06T00:21:05;6.30;;;3.08;;
26102;SDS011;69760;49.380;8.998;2023-08-06T00:23:30;6.82;;;3.50;;
26102;SDS011;69760;49.380;8.998;2023-08-06T00:25:56;4.93;;;3.35;;
26102;SDS011;69760;49.380;8.998;2023-08-06T00:28:22;6.07;;;3.28;;
26102;SDS011;69760;49.380;8.998;2023-08-06T00:30:52;6.53;;;3.05;;
26102;SDS011;69760;49.380;8.998;2023-08-06T00:33:21;6.25;;;3.15;;
26102;SDS011;69760;49.380;8.998;2023-08-06T00:35:48;6.68;;;3.45;;
26102;SDS011;69760;49.380;8.998;2023-08-06T00:38:13;4.03;;;3.10;;
26102;SDS011;69760;49.380;8.998;2023-08-06T00:40:39;4.53;;;3.45;;
26102;SDS011;69760;49.380;8.998;2023-08-06T00:43:04;4.38;;;3.30;;
26102;SDS011;69760;49.380;8.998;2023-08-06T00:45:30;3.92;;;2.85;;
26102;SDS011;69760;49.380;8.998;2023-08-06T00:47:59;4.07;;;2.92;;
26102;SDS011;69760;49.380;8.998;2023-08-06T00:50:25;4.10;;;3.15;;
26102;SDS011;69760;49.380;8.998;2023-08-06T00:52:51;4.55;;;3.33;;
26102;SDS011;69760;49.380;8.998;2023-08-06T00:55:18;3.38;;;3.08;;
26102;SDS011;69760;49.380;8.998;2023-08-06T00:57:43;3.60;;;3.22;;
26102;SDS011;69760;49.380;8.998;2023-08-06T01:00:09;3.60;;;3.30;;
26102;SDS011;69760;49.380;8.998;2023-08-06T01:02:35;8.90;;;3.65;;
26102;SDS011;69760;49.380;8.998;2023-08-06T01:05:02;4.82;;;3.85;;
26102;SDS011;69760;49.380;8.998;2023-08-06T01:16:13;6.30;;;3.38;;
26102;SDS011;69760;49.380;8.998;2023-08-06T01:18:22;3.90;;;3.08;;
26102;SDS011;69760;49.380;8.998;2023-08-06T01:20:47;4.38;;;2.80;;
26102;SDS011;69760;49.380;8.998;2023-08-06T01:23:14;6.15;;;3.42;;
26102;SDS011;69760;49.380;8.998;2023-08-06T01:25:46;5.78;;;3.28;;
26102;SDS011;69760;49.380;8.998;2023-08-06T01:31:18;3.30;;;2.75;;
26102;SDS011;69760;49.380;8.998;2023-08-06T01:33:46;4.43;;;2.63;;
26102;SDS011;69760;49.380;8.998;2023-08-06T01:36:15;3.97;;;2.70;;
26102;SDS011;69760;49.380;8.998;2023-08-06T01:38:42;3.53;;;2.85;;
26102;SDS011;69760;49.380;8.998;2023-08-06T01:41:07;3.80;;;2.70;;
26102;SDS011;69760;49.380;8.998;2023-08-06T01:43:33;4.70;;;3.08;;
26102;SDS011;69760;49.380;8.998;2023-08-06T01:45:59;4.32;;;2.83;;
26102;SDS011;69760;49.380;8.998;2023-08-06T01:48:24;3.53;;;2.80;;
26102;SDS011;69760;49.380;8.998;2023-08-06T01:50:50;4.80;;;2.90;;
26102;SDS011;69760;49.380;8.998;2023-08-06T01:53:15;5.25;;;2.80;;
26102;SDS011;69760;49.380;8.998;2023-08-06T01:55:41;2.92;;;2.60;;
26102;SDS011;69760;49.380;8.998;2023-08-06T01:58:06;3.42;;;2.70;;
26102;SDS011;69760;49.380;8.998;2023-08-06T02:00:32;4.75;;;2.80;;
26102;SDS011;69760;49.380;8.998;2023-08-06T02:02:57;3.97;;;3.17;;
26102;SDS011;69760;49.380;8.998;2023-08-06T02:05:23;4.90;;;2.50;;
26102;SDS011;69760;49.380;8.998;2023-08-06T02:07:48;3.50;;;2.50;;
26102;SDS011;69760;49.380;8.998;2023-08-06T02:10:14;4.60;;;2.72;;
26102;SDS011;69760;49.380;8.998;2023-08-06T02:12:39;3.65;;;2.78;;
26102;SDS011;69760;49.380;8.998;2023-08-06T02:15:05;3.60;;;2.90;;
26102;SDS011;69760;49.380;8.998;2023-08-06T02:17:31;3.60;;;2.42;;
26102;SDS011;69760;49.380;8.998;2023-08-06T02:19:57;3.28;;;2.60;;
26102;SDS011;69760;49.380;8.998;2023-08-06T02:22:22;3.70;;;2.63;;
26102;SDS011;69760;49.380;8.998;2023-08-06T02:24:49;3.42;;;2.58;;
26102;SDS011;69760;49.380;8.998;2023-08-06T02:27:14;2.95;;;2.20;;
26102;SDS011;69760;49.380;8.998;2023-08-06T02:29:40;5.32;;;2.38;;
26102;SDS011;69760;49.380;8.998;2023-08-06T02:32:06;2.97;;;2.53;;
26102;SDS011;69760;49.380;8.998;2023-08-06T02:34:32;3.15;;;2.55;;
26102;SDS011;69760;49.380;8.998;2023-08-06T02:36:58;4.18;;;2.78;;
26102;SDS011;69760;49.380;8.998;2023-08-06T02:39:23;5.13;;;2.95;;
26102;SDS011;69760;49.380;8.998;2023-08-06T02:41:49;5.00;;;2.63;;
26102;SDS011;69760;49.380;8.998;2023-08-06T02:44:14;3.83;;;2.88;;
26102;SDS011;69760;49.380;8.998;2023-08-06T02:46:40;3.33;;;2.80;;
26102;SDS011;69760;49.380;8.998;2023-08-06T02:49:06;4.10;;;2.67;;
26102;SDS011;69760;49.380;8.998;2023-08-06T02:51:31;3.53;;;2.70;;
26102;SDS011;69760;49.380;8.998;2023-08-06T02:53:57;2.90;;;2.58;;
26102;SDS011;69760;49.380;8.998;2023-08-06T02:56:22;5.82;;;3.58;;
26102;SDS011;69760;49.380;8.998;2023-08-06T02:58:48;3.20;;;2.70;;
26102;SDS011;69760;49.380;8.998;2023-08-06T03:01:13;4.32;;;3.22;;
26102;SDS011;69760;49.380;8.998;2023-08-06T03:03:39;4.32;;;3.20;;
26102;SDS011;69760;49.380;8.998;2023-08-06T03:06:05;3.95;;;2.97;;
26102;SDS011;69760;49.380;8.998;2023-08-06T03:08:30;3.90;;;2.85;;
26102;SDS011;69760;49.380;8.998;2023-08-06T03:10:56;4.30;;;3.00;;
26102;SDS011;69760;49.380;8.998;2023-08-06T03:13:21;6.20;;;3.30;;
26102;SDS011;69760;49.380;8.998;2023-08-06T03:15:57;4.22;;;2.55;;
26102;SDS011;69760;49.380;8.998;2023-08-06T03:18:24;4.43;;;3.13;;
26102;SDS011;69760;49.380;8.998;2023-08-06T03:20:53;3.47;;;3.00;;
26102;SDS011;69760;49.380;8.998;2023-08-06T03:23:19;8.88;;;3.20;;
26102;SDS011;69760;49.380;8.998;2023-08-06T03:25:45;2.85;;;2.45;;
26102;SDS011;69760;49.380;8.998;2023-08-06T03:28:11;4.38;;;2.85;;
26102;SDS011;69760;49.380;8.998;2023-08-06T03:30:36;3.42;;;2.65;;
26102;SDS011;69760;49.380;8.998;2023-08-06T03:33:03;3.85;;;2.63;;
26102;SDS011;69760;49.380;8.998;2023-08-06T03:35:29;3.28;;;2.53;;
26102;SDS011;69760;49.380;8.998;2023-08-06T03:37:54;3.45;;;2.60;;
26102;SDS011;69760;49.380;8.998;2023-08-06T03:40:20;3.03;;;2.22;;
26102;SDS011;69760;49.380;8.998;2023-08-06T03:42:45;4.53;;;2.22;;
26102;SDS011;69760;49.380;8.998;2023-08-06T03:45:11;3.42;;;2.42;;
26102;SDS011;69760;49.380;8.998;2023-08-06T03:47:37;4.32;;;2.10;;
26102;SDS011;69760;49.380;8.998;2023-08-06T03:50:02;5.20;;;2.30;;
26102;SDS011;69760;49.380;8.998;2023-08-06T03:52:28;4.72;;;2.40;;
26102;SDS011;69760;49.380;8.998;2023-08-06T03:54:53;7.20;;;2.10;;
26102;SDS011;69760;49.380;8.998;2023-08-06T03:57:19;4.10;;;2.00;;
26102;SDS011;69760;49.380;8.998;2023-08-06T03:59:45;4.50;;;2.40;;
26102;SDS011;69760;49.380;8.998;2023-08-06T04:02:10;5.45;;;2.00;;
26102;SDS011;69760;49.380;8.998;2023-08-06T04:04:36;5.63;;;2.20;;
26102;SDS011;69760;49.380;8.998;2023-08-06T04:07:01;5.35;;;2.28;;
26102;SDS011;69760;49.380;8.998;2023-08-06T04:09:28;3.58;;;2.00;;
26102;SDS011;69760;49.380;8.998;2023-08-06T04:11:54;4.82;;;2.20;;
26102;SDS011;69760;49.380;8.998;2023-08-06T04:14:20;3.55;;;1.88;;
26102;SDS011;69760;49.380;8.998;2023-08-06T04:16:46;5.55;;;2.08;;
26102;SDS011;69760;49.380;8.998;2023-08-06T04:19:12;5.03;;;1.88;;
26102;SDS011;69760;49.380;8.998;2023-08-06T04:21:37;4.80;;;2.10;;
26102;SDS011;69760;49.380;8.998;2023-08-06T04:24:03;4.32;;;1.80;;
26102;SDS011;69760;49.380;8.998;2023-08-06T04:26:29;4.90;;;1.70;;
26102;SDS011;69760;49.380;8.998;2023-08-06T04:28:54;3.83;;;1.80;;
26102;SDS011;69760;49.380;8.998;2023-08-06T04:31:20;3.67;;;1.65;;
26102;SDS011;69760;49.380;8.998;2023-08-06T04:33:46;6.65;;;1.90;;
26102;SDS011;69760;49.380;8.998;2023-08-06T04:36:12;4.43;;;1.58;;
26102;SDS011;69760;49.380;8.998;2023-08-06T04:38:37;4.85;;;1.88;;
26102;SDS011;69760;49.380;8.998;2023-08-06T04:41:03;5.85;;;1.90;;
26102;SDS011;69760;49.380;8.998;2023-08-06T04:43:29;2.75;;;1.45;;
26102;SDS011;69760;49.380;8.998;2023-08-06T04:45:55;6.00;;;1.80;;
26102;SDS011;69760;49.380;8.998;2023-08-06T04:48:21;2.35;;;1.52;;
26102;SDS011;69760;49.380;8.998;2023-08-06T04:50:47;3.70;;;1.58;;
26102;SDS011;69760;49.380;8.998;2023-08-06T04:53:14;3.33;;;1.45;;
26102;SDS011;69760;49.380;8.998;2023-08-06T04:55:40;4.32;;;1.60;;
26102;SDS011;69760;49.380;8.998;2023-08-06T04:58:06;7.15;;;1.25;;
26102;SDS011;69760;49.380;8.998;2023-08-06T05:00:32;5.47;;;1.50;;
26102;SDS011;69760;49.380;8.998;2023-08-06T05:03:01;3.80;;;1.48;;
26102;SDS011;69760;49.380;8.998;2023-08-06T05:05:27;5.45;;;1.42;;
26102;SDS011;69760;49.380;8.998;2023-08-06T05:07:53;4.72;;;1.20;;
26102;SDS011;69760;49.380;8.998;2023-08-06T05:10:20;3.92;;;1.50;;
26102;SDS011;69760;49.380;8.998;2023-08-06T05:12:46;3.17;;;1.27;;
26102;SDS011;69760;49.380;8.998;2023-08-06T05:15:11;4.13;;;1.25;;
26102;SDS011;69760;49.380;8.998;2023-08-06T05:17:37;3.22;;;1.63;;
26102;SDS011;69760;49.380;8.998;2023-08-06T05:20:03;2.60;;;1.30;;
26102;SDS011;69760;49.380;8.998;2023-08-06T05:22:29;3.58;;;1.30;;
26102;SDS011;69760;49.380;8.998;2023-08-06T05:24:54;5.50;;;1.33;;
26102;SDS011;69760;49.380;8.998;2023-08-06T05:27:20;3.13;;;1.23;;
26102;SDS011;69760;49.380;8.998;2023-08-06T05:29:45;3.92;;;1.15;;
26102;SDS011;69760;49.380;8.998;2023-08-06T05:32:12;3.83;;;1.40;;
26102;SDS011;69760;49.380;8.998;2023-08-06T05:34:38;3.47;;;1.10;;
26102;SDS011;69760;49.380;8.998;2023-08-06T05:37:04;4.25;;;1.20;;
26102;SDS011;69760;49.380;8.998;2023-08-06T05:39:30;6.85;;;1.25;;
26102;SDS011;69760;49.380;8.998;2023-08-06T05:41:55;5.22;;;1.40;;
26102;SDS011;69760;49.380;8.998;2023-08-06T05:44:22;3.40;;;1.42;;
26102;SDS011;69760;49.380;8.998;2023-08-06T05:46:49;6.30;;;1.20;;
26102;SDS011;69760;49.380;8.998;2023-08-06T05:49:14;6.95;;;1.10;;
26102;SDS011;69760;49.380;8.998;2023-08-06T05:51:41;3.72;;;1.02;;
26102;SDS011;69760;49.380;8.998;2023-08-06T05:54:07;3.53;;;1.30;;
26102;SDS011;69760;49.380;8.998;2023-08-06T05:56:32;4.20;;;1.30;;
26102;SDS011;69760;49.380;8.998;2023-08-06T05:58:58;4.50;;;1.08;;
26102;SDS011;69760;49.380;8.998;2023-08-06T06:01:24;1.90;;;1.00;;
26102;SDS011;69760;49.380;8.998;2023-08-06T06:03:50;4.32;;;1.13;;
26102;SDS011;69760;49.380;8.998;2023-08-06T06:06:15;2.55;;;1.00;;
26102;SDS011;69760;49.380;8.998;2023-08-06T06:08:42;3.63;;;1.10;;
26102;SDS011;69760;49.380;8.998;2023-08-06T06:11:08;2.83;;;0.80;;
26102;SDS011;69760;49.380;8.998;2023-08-06T06:13:33;3.47;;;1.25;;
26102;SDS011;69760;49.380;8.998;2023-08-06T06:15:59;2.33;;;0.93;;
26102;SDS011;69760;49.380;8.998;2023-08-06T06:18:24;2.55;;;1.23;;
26102;SDS011;69760;49.380;8.998;2023-08-06T06:20:50;4.20;;;1.20;;
26102;SDS011;69760;49.380;8.998;2023-08-06T06:23:15;7.68;;;1.20;;
26102;SDS011;69760;49.380;8.998;2023-08-06T06:25:50;4.70;;;1.73;;
26102;SDS011;69760;49.380;8.998;2023-08-06T06:28:19;3.50;;;0.95;;
26102;SDS011;69760;49.380;8.998;2023-08-06T06:30:44;4.88;;;0.80;;
26102;SDS011;69760;49.380;8.998;2023-08-06T06:33:10;6.90;;;1.10;;
26102;SDS011;69760;49.380;8.998;2023-08-06T06:35:36;5.35;;;1.05;;
26102;SDS011;69760;49.380;8.998;2023-08-06T06:38:02;5.00;;;1.27;;
26102;SDS011;69760;49.380;8.998;2023-08-06T06:40:28;3.63;;;0.93;;
26102;SDS011;69760;49.380;8.998;2023-08-06T06:42:53;2.50;;;0.90;;
26102;SDS011;69760;49.380;8.998;2023-08-06T06:45:19;1.63;;;0.70;;
26102;SDS011;69760;49.380;8.998;2023-08-06T06:47:44;1.75;;;0.70;;
26102;SDS011;69760;49.380;8.998;2023-08-06T06:50:10;1.58;;;0.70;;
26102;SDS011;69760;49.380;8.998;2023-08-06T06:52:35;3.65;;;1.13;;
26102;SDS011;69760;49.380;8.998;2023-08-06T06:55:02;5.15;;;0.80;;
26102;SDS011;69760;49.380;8.998;2023-08-06T06:57:27;2.65;;;0.88;;
26102;SDS011;69760;49.380;8.998;2023-08-06T06:59:53;1.67;;;0.73;;
26102;SDS011;69760;49.380;8.998;2023-08-06T07:02:19;2.80;;;0.90;;
26102;SDS011;69760;49.380;8.998;2023-08-06T07:04:44;5.22;;;1.10;;
26102;SDS011;69760;49.380;8.998;2023-08-06T07:07:10;3.17;;;0.77;;
26102;SDS011;69760;49.380;8.998;2023-08-06T07:09:35;3.38;;;0.70;;
26102;SDS011;69760;49.380;8.998;2023-08-06T07:12:01;1.98;;;0.95;;
26102;SDS011;69760;49.380;8.998;2023-08-06T07:14:28;1.92;;;0.70;;
26102;SDS011;69760;49.380;8.998;2023-08-06T07:16:53;2.58;;;0.70;;
26102;SDS011;69760;49.380;8.998;2023-08-06T07:19:19;0.98;;;0.70;;
26102;SDS011;69760;49.380;8.998;2023-08-06T07:21:45;2.53;;;0.63;;
26102;SDS011;69760;49.380;8.998;2023-08-06T07:24:10;1.67;;;0.93;;
26102;SDS011;69760;49.380;8.998;2023-08-06T07:26:36;2.25;;;0.80;;
26102;SDS011;69760;49.380;8.998;2023-08-06T07:29:02;2.35;;;0.80;;
26102;SDS011;69760;49.380;8.998;2023-08-06T07:31:28;4.13;;;0.85;;
26102;SDS011;69760;49.380;8.998;2023-08-06T07:33:54;2.35;;;0.80;;
26102;SDS011;69760;49.380;8.998;2023-08-06T07:36:20;1.88;;;0.80;;
26102;SDS011;69760;49.380;8.998;2023-08-06T07:38:45;3.13;;;0.82;;
26102;SDS011;69760;49.380;8.998;2023-08-06T07:41:12;1.92;;;0.75;;
26102;SDS011;69760;49.380;8.998;2023-08-06T07:43:37;2.83;;;0.80;;
26102;SDS011;69760;49.380;8.998;2023-08-06T07:46:03;2.53;;;0.95;;
26102;SDS011;69760;49.380;8.998;2023-08-06T07:48:29;3.35;;;0.80;;
26102;SDS011;69760;49.380;8.998;2023-08-06T07:50:55;2.17;;;0.90;;
26102;SDS011;69760;49.380;8.998;2023-08-06T07:53:21;5.32;;;0.95;;
26102;SDS011;69760;49.380;8.998;2023-08-06T07:55:51;0.98;;;0.70;;
26102;SDS011;69760;49.380;8.998;2023-08-06T07:58:17;2.60;;;0.77;;
26102;SDS011;69760;49.380;8.998;2023-08-06T08:00:43;1.85;;;0.77;;
26102;SDS011;69760;49.380;8.998;2023-08-06T08:03:10;4.25;;;0.88;;
26102;SDS011;69760;49.380;8.998;2023-08-06T08:05:39;2.40;;;0.73;;
26102;SDS011;69760;49.380;8.998;2023-08-06T08:08:05;2.72;;;0.80;;
26102;SDS011;69760;49.380;8.998;2023-08-06T08:10:32;1.77;;;0.70;;
26102;SDS011;69760;49.380;8.998;2023-08-06T08:12:57;1.40;;;0.68;;
26102;SDS011;69760;49.380;8.998;2023-08-06T08:15:24;0.77;;;0.70;;
26102;SDS011;69760;49.380;8.998;2023-08-06T08:17:53;3.03;;;0.73;;
26102;SDS011;69760;49.380;8.998;2023-08-06T08:20:18;1.60;;;0.63;;
26102;SDS011;69760;49.380;8.998;2023-08-06T08:22:45;1.30;;;0.60;;
26102;SDS011;69760;49.380;8.998;2023-08-06T08:25:11;1.42;;;0.60;;
26102;SDS011;69760;49.380;8.998;2023-08-06T08:27:37;1.27;;;0.55;;
26102;SDS011;69760;49.380;8.998;2023-08-06T08:30:03;0.73;;;0.70;;
26102;SDS011;69760;49.380;8.998;2023-08-06T08:32:29;1.05;;;0.50;;
26102;SDS011;69760;49.380;8.998;2023-08-06T08:34:54;1.17;;;0.60;;
26102;SDS011;69760;49.380;8.998;2023-08-06T08:37:20;0.73;;;0.50;;
26102;SDS011;69760;49.380;8.998;2023-08-06T08:39:45;0.65;;;0.43;;
26102;SDS011;69760;49.380;8.998;2023-08-06T08:42:11;2.85;;;0.68;;
26102;SDS011;69760;49.380;8.998;2023-08-06T08:44:37;0.75;;;0.55;;
26102;SDS011;69760;49.380;8.998;2023-08-06T08:47:05;0.80;;;0.50;;
26102;SDS011;69760;49.380;8.998;2023-08-06T08:49:33;0.82;;;0.68;;
26102;SDS011;69760;49.380;8.998;2023-08-06T08:52:01;2.00;;;0.65;;
26102;SDS011;69760;49.380;8.998;2023-08-06T08:54:28;0.80;;;0.50;;
26102;SDS011;69760;49.380;8.998;2023-08-06T08:56:55;1.50;;;0.63;;
26102;SDS011;69760;49.380;8.998;2023-08-06T08:59:22;1.33;;;0.68;;
26102;SDS011;69760;49.380;8.998;2023-08-06T09:01:48;0.88;;;0.60;;
26102;SDS011;69760;49.380;8.998;2023-08-06T09:04:20;0.90;;;0.70;;
26102;SDS011;69760;49.380;8.998;2023-08-06T09:06:47;2.78;;;0.73;;
26102;SDS011;69760;49.380;8.998;2023-08-06T09:09:17;0.82;;;0.50;;
26102;SDS011;69760;49.380;8.998;2023-08-06T09:11:50;0.57;;;0.57;;
26102;SDS011;69760;49.380;8.998;2023-08-06T09:14:16;1.50;;;0.50;;
26102;SDS011;69760;49.380;8.998;2023-08-06T09:16:42;0.40;;;0.40;;
26102;SDS011;69760;49.380;8.998;2023-08-06T09:19:09;0.73;;;0.55;;
26102;SDS011;69760;49.380;8.998;2023-08-06T09:21:37;2.10;;;0.55;;
26102;SDS011;69760;49.380;8.998;2023-08-06T09:24:10;0.50;;;0.50;;
26102;SDS011;69760;49.380;8.998;2023-08-06T09:26:37;2.88;;;0.40;;
26102;SDS011;69760;49.380;8.998;2023-08-06T09:29:07;0.57;;;0.35;;
26102;SDS011;69760;49.380;8.998;2023-08-06T09:31:42;0.95;;;0.40;;
26102;SDS011;69760;49.380;8.998;2023-08-06T09:34:17;2.15;;;0.30;;
26102;SDS011;69760;49.380;8.998;2023-08-06T09:36:47;0.63;;;0.40;;
26102;SDS011;69760;49.380;8.998;2023-08-06T09:39:14;0.30;;;0.30;;
26102;SDS011;69760;49.380;8.998;2023-08-06T09:41:40;0.20;;;0.20;;
26102;SDS011;69760;49.380;8.998;2023-08-06T09:44:15;0.30;;;0.30;;
26102;SDS011;69760;49.380;8.998;2023-08-06T09:46:42;1.83;;;0.45;;
26102;SDS011;69760;49.380;8.998;2023-08-06T09:49:07;0.57;;;0.20;;
26102;SDS011;69760;49.380;8.998;2023-08-06T09:51:34;0.50;;;0.50;;
26102;SDS011;69760;49.380;8.998;2023-08-06T09:54:02;1.15;;;0.50;;
26102;SDS011;69760;49.380;8.998;2023-08-06T09:56:29;0.43;;;0.40;;
26102;SDS011;69760;49.380;8.998;2023-08-06T09:58:58;0.40;;;0.40;;
26102;SDS011;69760;49.380;8.998;2023-08-06T10:01:24;0.50;;;0.40;;
26102;SDS011;69760;49.380;8.998;2023-08-06T10:03:50;0.20;;;0.20;;
26102;SDS011;69760;49.380;8.998;2023-08-06T10:06:18;0.80;;;0.40;;
26102;SDS011;69760;49.380;8.998;2023-08-06T10:08:47;0.40;;;0.38;;
26102;SDS011;69760;49.380;8.998;2023-08-06T10:11:12;1.08;;;0.40;;
26102;SDS011;69760;49.380;8.998;2023-08-06T10:13:41;1.50;;;0.50;;
26102;SDS011;69760;49.380;8.998;2023-08-06T10:16:06;2.20;;;0.43;;
26102;SDS011;69760;49.380;8.998;2023-08-06T10:18:32;0.40;;;0.40;;
26102;SDS011;69760;49.380;8.998;2023-08-06T10:21:00;0.45;;;0.40;;
26102;SDS011;69760;49.380;8.998;2023-08-06T10:23:33;0.30;;;0.30;;
26102;SDS011;69760;49.380;8.998;2023-08-06T10:26:00;0.30;;;0.30;;
26102;SDS011;69760;49.380;8.998;2023-08-06T10:28:33;0.43;;;0.30;;
26102;SDS011;69760;49.380;8.998;2023-08-06T10:31:03;1.25;;;0.40;;
26102;SDS011;69760;49.380;8.998;2023-08-06T10:33:44;0.70;;;0.32;;
26102;SDS011;69760;49.380;8.998;2023-08-06T10:36:11;1.42;;;0.30;;
26102;SDS011;69760;49.380;8.998;2023-08-06T10:38:47;0.40;;;0.40;;
26102;SDS011;69760;49.380;8.998;2023-08-06T10:41:23;1.88;;;0.40;;
26102;SDS011;69760;49.380;8.998;2023-08-06T10:44:04;0.43;;;0.40;;
26102;SDS011;69760;49.380;8.998;2023-08-06T10:46:33;0.40;;;0.40;;
26102;SDS011;69760;49.380;8.998;2023-08-06T10:48:59;1.15;;;0.30;;
26102;SDS011;69760;49.380;8.998;2023-08-06T10:51:24;1.20;;;0.40;;
26102;SDS011;69760;49.380;8.998;2023-08-06T10:53:50;0.40;;;0.40;;
26102;SDS011;69760;49.380;8.998;2023-08-06T10:56:17;0.30;;;0.25;;
26102;SDS011;69760;49.380;8.998;2023-08-06T10:58:44;1.20;;;0.25;;
26102;SDS011;69760;49.380;8.998;2023-08-06T11:01:10;0.35;;;0.35;;
26102;SDS011;69760;49.380;8.998;2023-08-06T11:03:37;0.40;;;0.30;;
26102;SDS011;69760;49.380;8.998;2023-08-06T11:06:03;0.73;;;0.40;;
26102;SDS011;69760;49.380;8.998;2023-08-06T11:08:33;0.75;;;0.40;;
26102;SDS011;69760;49.380;8.998;2023-08-06T11:11:10;0.30;;;0.30;;
26102;SDS011;69760;49.380;8.998;2023-08-06T11:13:38;0.30;;;0.30;;
26102;SDS011;69760;49.380;8.998;2023-08-06T11:16:20;0.20;;;0.20;;
26102;SDS011;69760;49.380;8.998;2023-08-06T11:18:51;0.30;;;0.30;;
26102;SDS011;69760;49.380;8.998;2023-08-06T11:21:20;0.10;;;0.10;;
26102;SDS011;69760;49.380;8.998;2023-08-06T11:23:46;0.22;;;0.22;;
26102;SDS011;69760;49.380;8.998;2023-08-06T11:26:12;0.88;;;0.40;;
26102;SDS011;69760;49.380;8.998;2023-08-06T11:28:43;0.20;;;0.20;;
26102;SDS011;69760;49.380;8.998;2023-08-06T11:31:17;1.45;;;0.40;;
26102;SDS011;69760;49.380;8.998;2023-08-06T11:33:46;1.08;;;0.50;;
26102;SDS011;69760;49.380;8.998;2023-08-06T11:36:12;0.45;;;0.35;;
26102;SDS011;69760;49.380;8.998;2023-08-06T11:38:38;0.28;;;0.28;;
26102;SDS011;69760;49.380;8.998;2023-08-06T11:41:03;0.20;;;0.20;;
26102;SDS011;69760;49.380;8.998;2023-08-06T11:43:31;0.40;;;0.22;;
26102;SDS011;69760;49.380;8.998;2023-08-06T11:45:58;0.20;;;0.20;;
26102;SDS011;69760;49.380;8.998;2023-08-06T11:48:25;0.40;;;0.40;;
26102;SDS011;69760;49.380;8.998;2023-08-06T11:50:54;0.65;;;0.38;;
26102;SDS011;69760;49.380;8.998;2023-08-06T11:53:20;0.40;;;0.40;;
26102;SDS011;69760;49.380;8.998;2023-08-06T11:55:45;0.60;;;0.50;;
26102;SDS011;69760;49.380;8.998;2023-08-06T11:58:11;0.47;;;0.47;;
26102;SDS011;69760;49.380;8.998;2023-08-06T12:00:37;0.40;;;0.40;;
26102;SDS011;69760;49.380;8.998;2023-08-06T12:03:04;0.70;;;0.60;;
26102;SDS011;69760;49.380;8.998;2023-08-06T12:05:30;4.38;;;0.73;;
26102;SDS011;69760;49.380;8.998;2023-08-06T12:07:58;1.63;;;0.70;;
26102;SDS011;69760;49.380;8.998;2023-08-06T12:10:26;0.90;;;0.77;;
26102;SDS011;69760;49.380;8.998;2023-08-06T12:12:52;0.70;;;0.60;;
26102;SDS011;69760;49.380;8.998;2023-08-06T12:15:18;1.90;;;0.63;;
26102;SDS011;69760;49.380;8.998;2023-08-06T12:17:44;1.10;;;0.80;;
26102;SDS011;69760;49.380;8.998;2023-08-06T12:20:10;1.00;;;0.90;;
26102;SDS011;69760;49.380;8.998;2023-08-06T12:22:36;1.83;;;1.00;;
26102;SDS011;69760;49.380;8.998;2023-08-06T12:25:06;1.00;;;0.90;;
26102;SDS011;69760;49.380;8.998;2023-08-06T12:27:34;1.67;;;1.15;;
26102;SDS011;69760;49.380;8.998;2023-08-06T12:30:00;1.35;;;0.90;;
26102;SDS011;69760;49.380;8.998;2023-08-06T12:32:26;2.08;;;0.90;;
26102;SDS011;69760;49.380;8.998;2023-08-06T12:34:51;1.50;;;0.95;;
26102;SDS011;69760;49.380;8.998;2023-08-06T12:37:17;1.77;;;1.23;;
26102;SDS011;69760;49.380;8.998;2023-08-06T12:39:42;1.55;;;1.10;;
26102;SDS011;69760;49.380;8.998;2023-08-06T12:42:08;1.52;;;0.90;;
26102;SDS011;69760;49.380;8.998;2023-08-06T12:44:35;1.98;;;1.17;;
26102;SDS011;69760;49.380;8.998;2023-08-06T12:47:00;2.30;;;1.10;;
26102;SDS011;69760;49.380;8.998;2023-08-06T12:49:26;4.20;;;1.10;;
26102;SDS011;69760;49.380;8.998;2023-08-06T12:51:52;1.45;;;1.10;;
26102;SDS011;69760;49.380;8.998;2023-08-06T12:54:18;3.53;;;1.30;;
26102;SDS011;69760;49.380;8.998;2023-08-06T12:56:46;5.35;;;1.25;;
26102;SDS011;69760;49.380;8.998;2023-08-06T12:59:13;3.33;;;1.23;;
26102;SDS011;69760;49.380;8.998;2023-08-06T13:01:41;1.50;;;0.90;;
26102;SDS011;69760;49.380;8.998;2023-08-06T13:04:07;1.85;;;1.40;;
26102;SDS011;69760;49.380;8.998;2023-08-06T13:06:33;2.17;;;1.55;;
26102;SDS011;69760;49.380;8.998;2023-08-06T13:09:05;3.80;;;1.40;;
26102;SDS011;69760;49.380;8.998;2023-08-06T13:11:33;3.72;;;1.60;;
26102;SDS011;69760;49.380;8.998;2023-08-06T13:14:03;1.70;;;1.25;;
26102;SDS011;69760;49.380;8.998;2023-08-06T13:16:34;2.85;;;1.50;;
26102;SDS011;69760;49.380;8.998;2023-08-06T13:19:01;2.97;;;1.65;;
26102;SDS011;69760;49.380;8.998;2023-08-06T13:21:30;3.08;;;1.50;;
26102;SDS011;69760;49.380;8.998;2023-08-06T13:23:58;2.83;;;1.20;;
26102;SDS011;69760;49.380;8.998;2023-08-06T13:26:23;2.33;;;1.13;;
26102;SDS011;69760;49.380;8.998;2023-08-06T13:28:49;1.98;;;1.35;;
26102;SDS011;69760;49.380;8.998;2023-08-06T13:31:15;1.48;;;1.13;;
26102;SDS011;69760;49.380;8.998;2023-08-06T13:33:41;3.00;;;1.20;;
26102;SDS011;69760;49.380;8.998;2023-08-06T13:36:07;2.70;;;1.00;;
26102;SDS011;69760;49.380;8.998;2023-08-06T13:38:32;1.73;;;1.00;;
26102;SDS011;69760;49.380;8.998;2023-08-06T13:40:58;1.40;;;1.20;;
26102;SDS011;69760;49.380;8.998;2023-08-06T13:43:24;2.65;;;1.38;;
26102;SDS011;69760;49.380;8.998;2023-08-06T13:45:49;2.80;;;1.20;;
26102;SDS011;69760;49.380;8.998;2023-08-06T13:48:15;2.72;;;1.23;;
26102;SDS011;69760;49.380;8.998;2023-08-06T13:50:40;1.83;;;1.20;;
26102;SDS011;69760;49.380;8.998;2023-08-06T13:53:06;1.50;;;1.20;;
26102;SDS011;69760;49.380;8.998;2023-08-06T13:55:31;1.20;;;1.08;;
26102;SDS011;69760;49.380;8.998;2023-08-06T13:57:57;1.95;;;1.40;;
26102;SDS011;69760;49.380;8.998;2023-08-06T14:00:23;3.42;;;1.20;;
26102;SDS011;69760;49.380;8.998;2023-08-06T14:02:48;4.22;;;1.40;;
26102;SDS011;69760;49.380;8.998;2023-08-06T14:05:14;1.50;;;1.08;;
26102;SDS011;69760;49.380;8.998;2023-08-06T14:07:39;1.20;;;0.80;;
26102;SDS011;69760;49.380;8.998;2023-08-06T14:10:05;1.05;;;0.95;;
26102;SDS011;69760;49.380;8.998;2023-08-06T14:12:31;1.08;;;0.88;;
26102;SDS011;69760;49.380;8.998;2023-08-06T14:14:57;4.35;;;1.00;;
26102;SDS011;69760;49.380;8.998;2023-08-06T14:17:22;4.43;;;1.10;;
26102;SDS011;69760;49.380;8.998;2023-08-06T14:19:48;1.60;;;1.20;;
26102;SDS011;69760;49.380;8.998;2023-08-06T14:22:14;2.15;;;1.05;;
26102;SDS011;69760;49.380;8.998;2023-08-06T14:24:39;1.17;;;1.08;;
26102;SDS011;69760;49.380;8.998;2023-08-06T14:27:05;1.70;;;0.98;;
26102;SDS011;69760;49.380;8.998;2023-08-06T14:29:31;2.40;;;1.20;;
26102;SDS011;69760;49.380;8.998;2023-08-06T14:31:57;1.35;;;0.93;;
26102;SDS011;69760;49.380;8.998;2023-08-06T14:34:22;2.22;;;1.00;;
26102;SDS011;69760;49.380;8.998;2023-08-06T14:36:48;2.35;;;1.08;;
26102;SDS011;69760;49.380;8.998;2023-08-06T14:39:14;1.33;;;1.13;;
26102;SDS011;69760;49.380;8.998;2023-08-06T14:41:39;1.35;;;1.20;;
26102;SDS011;69760;49.380;8.998;2023-08-06T14:44:05;1.15;;;0.80;;
26102;SDS011;69760;49.380;8.998;2023-08-06T14:46:32;2.17;;;1.00;;
26102;SDS011;69760;49.380;8.998;2023-08-06T14:48:58;3.25;;;1.00;;
26102;SDS011;69760;49.380;8.998;2023-08-06T14:51:23;1.00;;;0.95;;
26102;SDS011;69760;49.380;8.998;2023-08-06T14:53:49;1.42;;;0.90;;
26102;SDS011;69760;49.380;8.998;2023-08-06T14:56:15;2.35;;;1.00;;